»·PEaware :: N1881Q KGEG-KHQM

N1881Q :: KGEG-KHQM

FLIGHT INFORMATION

Flight Status: Arrived
Operator: Privately registered:
United States
More flights under this callsign
Pilot: Matthew M. (27032)
Aircraft: CESSNA 550 CITATION 2/S2/BRAVO
(C550)
More flights by this aircraft type
Origin: KGEG Spokane Intl
United States
Destination: KHQM Bowerman
United States
More flights between these airports :: More routes between these airports
Route: +GEG6 GEG MWH OLM
File this flight plan on PilotEdge
Remarks:
Altitude:
(Current/Filed)
28,000ft
Speed:
(Current/Filed)
400kts
Departed: 24-Aug-20 08:08 AM
Arrived: 24-Aug-20 09:08 AM
Distance/Time
Traveled:
263nm/0:59
Distance/Time
To Go:
Arrived

Flight Plot

Page will automatically refresh every two minutes.

Flight plan parsing failed; only flown route is shown


Map Options




Map Legend


Flown Route
Filed Route
Departure Airport
Arrival Airport
Navaid (VOR, NDB)
Fix

Horizontal Profiles

Position Reports

Time Latitude Longitude Heading Altitude Ground
Speed
24-Aug-20 07:32 47.619160 -117.525388 89 2369ft 0kts
24-Aug-20 07:33 47.619160 -117.525388 89 2369ft 0kts
24-Aug-20 07:34 47.619160 -117.525388 89 2369ft 0kts
24-Aug-20 07:35 47.619160 -117.525388 89 2369ft 0kts
24-Aug-20 07:36 47.619160 -117.525388 89 2369ft 0kts
24-Aug-20 07:37 47.619160 -117.525388 89 2369ft 0kts
24-Aug-20 07:38 47.619160 -117.525388 89 2369ft 0kts
24-Aug-20 07:39 47.619160 -117.525388 89 2369ft 0kts
24-Aug-20 07:40 47.619160 -117.525388 89 2369ft 0kts
24-Aug-20 07:41 47.619160 -117.525388 89 2369ft 0kts
24-Aug-20 07:42 47.619160 -117.525388 89 2369ft 0kts
24-Aug-20 07:43 47.619160 -117.525388 89 2369ft 0kts
24-Aug-20 07:44 47.619160 -117.525388 89 2369ft 0kts
24-Aug-20 07:45 47.619160 -117.525388 89 2369ft 0kts
24-Aug-20 07:46 47.619160 -117.525388 89 2369ft 0kts
24-Aug-20 07:47 47.619160 -117.525388 89 2369ft 0kts
24-Aug-20 07:48 47.619160 -117.525388 89 2369ft 0kts
24-Aug-20 07:49 47.619160 -117.525388 89 2369ft 0kts
24-Aug-20 07:50 47.619160 -117.525388 89 2369ft 0kts
24-Aug-20 07:51 47.619160 -117.525388 89 2369ft 0kts
24-Aug-20 07:52 47.619160 -117.525388 89 2369ft 0kts
24-Aug-20 07:53 47.619160 -117.525388 89 2369ft 0kts
24-Aug-20 07:54 47.619160 -117.525388 89 2369ft 0kts
24-Aug-20 07:55 47.619160 -117.525388 89 2369ft 0kts
24-Aug-20 07:56 47.619160 -117.525388 89 2369ft 0kts
24-Aug-20 07:57 47.619160 -117.525388 89 2369ft 0kts
24-Aug-20 07:58 47.619160 -117.525388 89 2369ft 0kts
24-Aug-20 08:00 47.619160 -117.525388 89 2369ft 0kts
24-Aug-20 08:01 47.619160 -117.525388 89 2369ft 0kts
24-Aug-20 08:02 47.619160 -117.525388 89 2369ft 0kts
24-Aug-20 08:03 47.619160 -117.525388 89 2369ft 0kts
24-Aug-20 08:04 47.618997 -117.525224 185 2370ft 5kts
24-Aug-20 08:05 47.617869 -117.522340 90 2374ft 14kts
24-Aug-20 08:06 47.617756 -117.520441 125 2375ft 0kts
24-Aug-20 08:07 47.617040 -117.520251 195 2376ft 8kts
24-Aug-20 08:08 47.616151 -117.549943 249 3253ft 133kts
24-Aug-20 08:09 47.585662 -117.603083 224 5649ft 195kts
24-Aug-20 08:10 47.562027 -117.685197 250 7992ft 237kts
24-Aug-20 08:11 47.542775 -117.777574 249 10671ft 235kts
24-Aug-20 08:12 47.523942 -117.867570 249 12974ft 237kts
24-Aug-20 08:13 47.503286 -117.966515 249 14747ft 263kts
24-Aug-20 08:14 47.481878 -118.068479 249 17159ft 263kts
24-Aug-20 08:15 47.459918 -118.172504 249 19140ft 267kts
24-Aug-20 08:16 47.437653 -118.277493 248 20971ft 268kts
24-Aug-20 08:16 47.419288 -118.363700 248 22626ft 260kts
24-Aug-20 08:18 47.391808 -118.491561 249 22967ft 302kts
24-Aug-20 08:19 47.365281 -118.614708 249 22949ft 319kts
24-Aug-20 08:19 47.343517 -118.715419 248 24087ft 289kts
24-Aug-20 08:20 47.321778 -118.815215 247 26499ft 245kts
24-Aug-20 08:22 47.297399 -118.926194 247 27884ft 250kts
24-Aug-20 08:22 47.278457 -119.012135 248 27942ft 279kts
24-Aug-20 08:23 47.253523 -119.125192 248 27932ft 293kts
24-Aug-20 08:24 47.227966 -119.240246 248 27931ft 296kts
24-Aug-20 08:25 47.209419 -119.359353 258 27925ft 302kts
24-Aug-20 08:26 47.202286 -119.483489 260 27914ft 303kts
24-Aug-20 08:27 47.195695 -119.607723 260 27909ft 303kts
24-Aug-20 08:28 47.189007 -119.731477 259 27917ft 304kts
24-Aug-20 08:29 47.182164 -119.855825 259 27921ft 304kts
24-Aug-20 08:30 47.175174 -119.980301 259 27930ft 304kts
24-Aug-20 08:31 47.168073 -120.104310 259 27933ft 304kts
24-Aug-20 08:32 47.160843 -120.228537 259 27935ft 304kts
24-Aug-20 08:33 47.153460 -120.352627 259 27944ft 304kts
24-Aug-20 08:34 47.145951 -120.476720 259 27953ft 304kts
24-Aug-20 08:35 47.138359 -120.600440 259 27953ft 303kts
24-Aug-20 08:36 47.130598 -120.724149 258 27961ft 303kts
24-Aug-20 08:37 47.122834 -120.845518 258 27960ft 303kts
24-Aug-20 08:38 47.114749 -120.969613 258 27959ft 303kts
24-Aug-20 08:39 47.106603 -121.092904 258 27958ft 303kts
24-Aug-20 08:40 47.098350 -121.215933 258 27958ft 301kts
24-Aug-20 08:41 47.089995 -121.338419 258 28009ft 299kts
24-Aug-20 08:42 47.081572 -121.459994 258 28059ft 297kts
24-Aug-20 08:43 47.073016 -121.581566 258 28060ft 298kts
24-Aug-20 08:44 47.064074 -121.705699 258 27340ft 315kts
24-Aug-20 08:45 47.054564 -121.837123 258 26321ft 329kts
24-Aug-20 08:46 47.044612 -121.972381 259 25293ft 335kts
24-Aug-20 08:47 47.034391 -122.109181 259 24250ft 333kts
24-Aug-20 08:48 47.024256 -122.242524 259 24066ft 320kts
24-Aug-20 08:49 47.014292 -122.371609 259 23008ft 313kts
24-Aug-20 08:50 47.004610 -122.495099 260 20952ft 300kts
24-Aug-20 08:51 46.994915 -122.615719 260 18895ft 296kts
24-Aug-20 08:52 46.985247 -122.735358 260 16872ft 296kts
24-Aug-20 08:53 46.980522 -122.855024 264 14848ft 288kts
24-Aug-20 08:54 46.977134 -122.971115 265 12833ft 284kts
24-Aug-20 08:55 46.973678 -123.086486 266 10821ft 283kts
24-Aug-20 08:56 46.970310 -123.198721 266 8804ft 254kts
24-Aug-20 08:57 46.966994 -123.301268 266 6795ft 251kts
24-Aug-20 08:58 46.963981 -123.403031 274 4777ft 249kts
24-Aug-20 08:59 46.995994 -123.488541 303 3274ft 228kts
24-Aug-20 09:00 47.017067 -123.561415 261 2293ft 176kts
24-Aug-20 09:01 47.008095 -123.634557 261 2299ft 185kts
24-Aug-20 09:02 46.998300 -123.714327 260 2300ft 204kts
24-Aug-20 09:03 46.989244 -123.788909 260 2186ft 146kts
24-Aug-20 09:04 46.983557 -123.835793 261 1479ft 98kts
24-Aug-20 09:05 46.979026 -123.872828 261 897ft 89kts
24-Aug-20 09:06 46.974616 -123.909081 261 373ft 93kts
24-Aug-20 09:07 46.970959 -123.938491 259 20ft 24kts
24-Aug-20 09:08 46.971941 -123.938915 80 19ft 5kts
24-Aug-20 09:09 46.972542 -123.934001 79 19ft 11kts
24-Aug-20 09:10 46.973419 -123.930569 48 18ft 9kts
24-Aug-20 09:11 46.973516 -123.930254 83 18ft 0kts
24-Aug-20 09:12 46.973516 -123.930254 83 18ft 0kts
24-Aug-20 09:13 46.973516 -123.930254 83 18ft 0kts
24-Aug-20 09:14 46.973516 -123.930254 83 18ft 0kts
24-Aug-20 09:15 46.973516 -123.930254 83 18ft 0kts
24-Aug-20 09:16 46.973516 -123.930254 83 18ft 0kts
24-Aug-20 09:17 46.973516 -123.930254 83 18ft 0kts
24-Aug-20 09:18 46.973516 -123.930254 83 18ft 0kts
24-Aug-20 09:19 46.973516 -123.930254 83 18ft 0kts
24-Aug-20 09:20 46.973516 -123.930254 83 18ft 0kts
24-Aug-20 09:21 46.973516 -123.930254 83 18ft 0kts

Navigation Log

Ident Type
Flight plan parsing failed, navigation log unavailable